createdAt,value
2018-11-13T00:00:45.189Z,11.80
2018-11-13T00:03:14.722Z,11.80
2018-11-13T00:05:44.269Z,11.70
2018-11-13T00:08:13.714Z,11.70
2018-11-13T00:10:43.218Z,11.60
2018-11-13T00:13:12.871Z,11.60
2018-11-13T00:15:42.260Z,11.50
2018-11-13T00:18:11.692Z,11.50
2018-11-13T00:20:41.185Z,11.40
2018-11-13T00:23:10.654Z,11.50
2018-11-13T00:25:40.188Z,11.40
2018-11-13T00:28:09.844Z,11.30
2018-11-13T00:30:39.520Z,11.30
2018-11-13T00:33:09.155Z,11.40
2018-11-13T00:35:38.603Z,11.30
2018-11-13T00:38:08.227Z,11.30
2018-11-13T00:40:38.341Z,11.30
2018-11-13T00:43:08.104Z,11.20
2018-11-13T00:45:37.776Z,11.20
2018-11-13T00:48:07.335Z,11.30
2018-11-13T00:50:36.904Z,11.30
2018-11-13T00:53:06.524Z,11.30
2018-11-13T00:55:36.058Z,11.30
2018-11-13T00:58:05.515Z,11.30
2018-11-13T01:00:35.184Z,11.30
2018-11-13T01:03:04.925Z,11.30
2018-11-13T01:05:34.710Z,11.30
2018-11-13T01:08:04.244Z,11.30
2018-11-13T01:10:33.748Z,11.40
2018-11-13T01:13:03.350Z,11.50
2018-11-13T01:15:32.832Z,11.60
2018-11-13T01:18:02.362Z,11.70
2018-11-13T01:20:31.972Z,11.70
2018-11-13T01:23:01.625Z,11.80
2018-11-13T01:25:31.246Z,11.80
2018-11-13T01:28:00.726Z,11.90
2018-11-13T01:30:30.322Z,11.90
2018-11-13T01:32:59.894Z,11.90
2018-11-13T01:35:29.345Z,12.00
2018-11-13T01:37:58.851Z,12.00
2018-11-13T01:40:28.491Z,11.90
2018-11-13T01:42:58.055Z,11.90
2018-11-13T01:45:27.656Z,11.80
2018-11-13T01:47:57.173Z,11.90
2018-11-13T01:50:26.829Z,11.80
2018-11-13T01:52:56.472Z,11.90
2018-11-13T01:55:26.049Z,11.80
2018-11-13T01:57:55.726Z,11.90
2018-11-13T02:00:25.505Z,11.90
2018-11-13T02:02:56.133Z,11.90
2018-11-13T02:05:26.399Z,11.80
2018-11-13T02:07:56.134Z,11.80
2018-11-13T02:10:25.693Z,11.80
2018-11-13T02:12:55.355Z,11.70
2018-11-13T02:15:24.802Z,11.70
2018-11-13T02:17:54.420Z,11.80
2018-11-13T02:20:25.905Z,11.80
2018-11-13T02:22:55.594Z,11.80
2018-11-13T02:25:25.129Z,11.80
2018-11-13T02:27:54.547Z,11.80
2018-11-13T02:30:24.050Z,11.90
2018-11-13T02:32:53.765Z,11.90
2018-11-13T02:35:23.208Z,11.90
2018-11-13T02:37:52.814Z,11.90
2018-11-13T02:40:22.347Z,11.90
2018-11-13T02:42:51.737Z,11.90
2018-11-13T02:45:21.444Z,11.90
2018-11-13T02:47:50.959Z,11.90
2018-11-13T02:50:21.281Z,11.90
2018-11-13T02:52:50.723Z,11.80
2018-11-13T02:55:20.210Z,11.80
2018-11-13T02:57:49.589Z,11.70
2018-11-13T03:00:20.590Z,11.70
2018-11-13T03:02:50.215Z,11.70
2018-11-13T03:05:20.791Z,11.60
2018-11-13T03:07:51.658Z,11.60
2018-11-13T03:10:21.534Z,11.50
2018-11-13T03:12:51.159Z,11.50
2018-11-13T03:15:22.617Z,11.40
2018-11-13T03:17:52.220Z,11.40
2018-11-13T03:20:21.861Z,11.20
2018-11-13T03:22:51.327Z,11.20
2018-11-13T03:25:21.860Z,11.10
2018-11-13T03:27:51.581Z,11.00
2018-11-13T03:30:27.484Z,11.10
2018-11-13T03:32:57.116Z,11.10
2018-11-13T03:35:26.562Z,11.10
2018-11-13T03:37:55.975Z,11.10
2018-11-13T03:40:25.640Z,11.10
2018-11-13T03:42:55.363Z,11.10
2018-11-13T03:45:24.807Z,11.10
2018-11-13T03:47:54.293Z,11.10
2018-11-13T03:50:25.517Z,11.10
2018-11-13T03:52:55.224Z,11.20
2018-11-13T03:55:24.871Z,11.30
2018-11-13T03:57:54.370Z,11.30
2018-11-13T04:00:24.465Z,11.30
2018-11-13T04:02:53.890Z,11.30
2018-11-13T04:05:23.392Z,11.30
2018-11-13T04:07:54.611Z,11.30
2018-11-13T04:10:24.827Z,11.30
2018-11-13T04:12:54.248Z,11.30
2018-11-13T04:15:24.971Z,11.30
2018-11-13T04:17:54.752Z,11.30
2018-11-13T04:20:24.465Z,11.30
2018-11-13T04:22:54.067Z,11.30
2018-11-13T04:25:24.051Z,11.30
2018-11-13T04:27:53.462Z,11.40
2018-11-13T04:30:22.910Z,11.40
2018-11-13T04:32:52.568Z,11.40
2018-11-13T04:35:22.213Z,11.40
2018-11-13T04:37:51.852Z,11.30
2018-11-13T04:40:22.015Z,11.40
2018-11-13T04:42:53.275Z,11.40
2018-11-13T04:45:23.984Z,11.40
2018-11-13T04:47:53.521Z,11.40
2018-11-13T04:50:23.868Z,11.50
2018-11-13T04:52:53.339Z,11.50
2018-11-13T04:55:22.724Z,11.50
2018-11-13T04:57:52.184Z,11.50
2018-11-13T05:00:23.358Z,11.50
2018-11-13T05:02:52.992Z,11.60
2018-11-13T05:05:22.954Z,11.60
2018-11-13T05:07:56.173Z,11.60
2018-11-13T05:10:26.029Z,11.60
2018-11-13T05:12:55.514Z,11.60
2018-11-13T05:15:25.244Z,11.60
2018-11-13T05:17:54.952Z,11.50
2018-11-13T05:20:24.494Z,11.60
2018-11-13T05:22:54.063Z,11.60
2018-11-13T05:25:23.584Z,11.60
2018-11-13T05:27:53.360Z,11.60
2018-11-13T05:30:23.302Z,11.70
2018-11-13T05:32:52.905Z,11.70
2018-11-13T05:35:23.007Z,11.70
2018-11-13T05:37:52.695Z,11.60
2018-11-13T05:40:23.898Z,11.70
2018-11-13T05:42:53.675Z,11.70
2018-11-13T05:45:24.455Z,11.70
2018-11-13T05:47:54.143Z,11.70
2018-11-13T05:50:23.724Z,11.70
2018-11-13T05:52:54.303Z,11.60
2018-11-13T05:55:23.798Z,11.70
2018-11-13T05:57:53.577Z,11.70
2018-11-13T06:00:28.699Z,11.70
2018-11-13T06:02:58.383Z,11.70
2018-11-13T06:05:28.114Z,11.70
2018-11-13T06:08:03.115Z,11.70
2018-11-13T06:10:32.803Z,11.70
2018-11-13T06:13:02.825Z,11.60
2018-11-13T06:15:32.435Z,11.60
2018-11-13T06:18:02.206Z,11.60
2018-11-13T06:20:31.933Z,11.60
2018-11-13T06:23:01.853Z,11.60
2018-11-13T06:25:31.442Z,11.60
2018-11-13T06:28:01.214Z,11.60
2018-11-13T06:30:30.784Z,11.50
2018-11-13T06:33:00.484Z,11.50
2018-11-13T06:35:30.198Z,11.50
2018-11-13T06:37:59.783Z,11.60
2018-11-13T06:40:29.393Z,11.60
2018-11-13T06:42:59.179Z,11.60
2018-11-13T06:45:28.788Z,11.60
2018-11-13T06:47:58.374Z,11.60
2018-11-13T06:50:27.961Z,11.60
2018-11-13T06:52:57.625Z,11.60
2018-11-13T06:55:34.570Z,11.60
2018-11-13T06:58:04.584Z,11.50
2018-11-13T07:00:34.328Z,11.60
2018-11-13T07:03:03.899Z,11.60
2018-11-13T07:05:33.556Z,11.60
2018-11-13T07:08:03.249Z,11.60
2018-11-13T07:10:32.879Z,11.70
2018-11-13T07:13:02.636Z,11.60
2018-11-13T07:15:32.792Z,11.70
2018-11-13T07:18:03.800Z,11.70
2018-11-13T07:20:35.536Z,11.70
2018-11-13T07:23:05.167Z,11.60
2018-11-13T07:25:34.836Z,11.60
2018-11-13T07:28:06.803Z,11.60
2018-11-13T07:30:36.367Z,11.60
2018-11-13T07:33:06.201Z,11.60
2018-11-13T07:35:35.791Z,11.60
2018-11-13T07:38:05.411Z,11.60
2018-11-13T07:40:35.095Z,11.50
2018-11-13T07:43:05.168Z,11.50
2018-11-13T07:45:34.720Z,11.40
2018-11-13T07:48:04.510Z,11.40
2018-11-13T07:50:34.023Z,11.40
2018-11-13T07:53:03.664Z,11.50
2018-11-13T07:55:33.253Z,11.40
2018-11-13T07:58:03.015Z,11.40
2018-11-13T08:00:32.738Z,11.40
2018-11-13T08:03:13.259Z,11.40
2018-11-13T08:05:42.973Z,11.40
2018-11-13T08:08:13.915Z,11.40
2018-11-13T08:10:43.483Z,11.20
2018-11-13T08:13:13.323Z,11.10
2018-11-13T08:15:42.736Z,11.20
2018-11-13T08:18:12.490Z,11.10
2018-11-13T08:20:42.224Z,11.10
2018-11-13T08:23:12.043Z,11.10
2018-11-13T08:25:41.637Z,11.10
2018-11-13T08:28:11.492Z,11.20
2018-11-13T08:30:41.279Z,11.20
2018-11-13T08:33:11.086Z,11.30
2018-11-13T08:35:40.810Z,11.30
2018-11-13T08:38:10.519Z,11.40
2018-11-13T08:40:40.620Z,11.40
2018-11-13T08:43:10.271Z,11.40
2018-11-13T08:45:39.867Z,11.50
2018-11-13T08:48:09.465Z,11.50
2018-11-13T08:50:39.937Z,11.60
2018-11-13T08:53:09.647Z,11.60
2018-11-13T08:55:39.250Z,11.60
2018-11-13T08:58:08.895Z,11.60
2018-11-13T09:00:38.448Z,11.70
2018-11-13T09:03:08.120Z,11.60
2018-11-13T09:05:37.960Z,11.60
2018-11-13T09:08:07.669Z,11.50
2018-11-13T09:10:38.812Z,11.60
2018-11-13T09:13:08.569Z,11.60
2018-11-13T09:15:38.359Z,11.60
2018-11-13T09:18:08.234Z,11.60
2018-11-13T09:20:37.842Z,11.60
2018-11-13T09:23:07.547Z,11.70
2018-11-13T09:25:37.139Z,11.60
2018-11-13T09:28:06.946Z,11.50
2018-11-13T09:30:36.684Z,11.50
2018-11-13T09:33:06.313Z,11.40
2018-11-13T09:35:35.937Z,11.40
2018-11-13T09:38:05.657Z,11.40
2018-11-13T09:40:35.255Z,11.30
2018-11-13T09:43:05.307Z,11.20
2018-11-13T09:45:35.096Z,11.10
2018-11-13T09:48:05.820Z,11.00
2018-11-13T09:50:35.660Z,10.90
2018-11-13T09:53:05.419Z,10.90
2018-11-13T09:55:35.194Z,10.90
2018-11-13T09:58:05.043Z,10.90
2018-11-13T10:00:35.049Z,10.90
2018-11-13T10:03:05.274Z,11.00
2018-11-13T10:05:34.605Z,11.10
2018-11-13T10:08:04.110Z,11.30
2018-11-13T10:10:33.876Z,11.40
2018-11-13T10:13:03.728Z,11.40
2018-11-13T10:15:33.280Z,11.50
2018-11-13T10:18:03.191Z,11.60
2018-11-13T10:20:32.716Z,11.50
2018-11-13T10:23:02.272Z,11.40
2018-11-13T10:25:31.928Z,11.50
2018-11-13T10:28:01.672Z,11.40
2018-11-13T10:30:31.548Z,11.50
2018-11-13T10:33:01.238Z,11.50
2018-11-13T10:35:30.804Z,11.40
2018-11-13T10:38:00.511Z,11.40
2018-11-13T10:40:30.194Z,11.30
2018-11-13T10:42:59.648Z,11.30
2018-11-13T10:45:29.794Z,11.30
2018-11-13T10:47:59.343Z,11.20
2018-11-13T10:50:28.955Z,11.20
2018-11-13T10:52:58.514Z,11.20
2018-11-13T10:55:28.108Z,11.20
2018-11-13T10:57:57.900Z,11.10
2018-11-13T11:00:32.565Z,11.10
2018-11-13T11:03:07.540Z,11.10
2018-11-13T11:05:37.265Z,11.10
2018-11-13T11:08:09.216Z,11.10
2018-11-13T11:10:38.792Z,11.10
2018-11-13T11:13:08.813Z,11.10
2018-11-13T11:15:38.455Z,11.30
2018-11-13T11:18:08.305Z,11.30
2018-11-13T11:20:38.049Z,11.30
2018-11-13T11:23:07.711Z,11.40
2018-11-13T11:25:37.303Z,11.30
2018-11-13T11:28:06.823Z,11.30
2018-11-13T11:30:36.381Z,11.30
2018-11-13T11:33:06.426Z,11.30
2018-11-13T11:35:36.082Z,11.30
2018-11-13T11:38:06.144Z,11.30
2018-11-13T11:40:35.762Z,11.40
2018-11-13T11:43:05.731Z,11.40
2018-11-13T11:45:35.416Z,11.40
2018-11-13T11:48:05.011Z,11.50
2018-11-13T11:50:34.577Z,11.50
2018-11-13T11:53:04.077Z,11.50
2018-11-13T11:55:33.569Z,11.40
2018-11-13T11:58:03.258Z,11.30
2018-11-13T12:00:34.270Z,11.20
2018-11-13T12:03:04.247Z,11.20
2018-11-13T12:05:33.863Z,11.20
2018-11-13T12:08:03.445Z,11.10
2018-11-13T12:10:33.175Z,10.90
2018-11-13T12:13:02.848Z,10.80
2018-11-13T12:15:32.514Z,10.70
2018-11-13T12:18:02.250Z,10.70
2018-11-13T12:20:31.963Z,10.80
2018-11-13T12:23:01.646Z,10.90
2018-11-13T12:25:31.256Z,10.90
2018-11-13T12:28:00.944Z,11.00
2018-11-13T12:30:30.507Z,10.90
2018-11-13T12:33:00.320Z,11.00
2018-11-13T12:35:30.040Z,11.10
2018-11-13T12:37:59.585Z,11.10
2018-11-13T12:40:29.133Z,11.10
2018-11-13T12:42:58.642Z,11.10
2018-11-13T12:45:28.334Z,11.10
2018-11-13T12:47:57.823Z,11.10
2018-11-13T12:50:31.568Z,11.00
2018-11-13T12:53:01.270Z,11.00
2018-11-13T12:55:31.113Z,11.00
2018-11-13T12:58:00.851Z,10.90
2018-11-13T13:00:30.523Z,10.90
2018-11-13T13:02:59.951Z,10.80
2018-11-13T13:05:29.677Z,10.60
2018-11-13T13:07:59.304Z,10.50
2018-11-13T13:10:28.923Z,10.50
2018-11-13T13:12:58.479Z,10.40
2018-11-13T13:15:28.029Z,10.30
2018-11-13T13:17:57.644Z,10.20
2018-11-13T13:20:27.264Z,10.20
2018-11-13T13:22:56.960Z,10.30
2018-11-13T13:25:26.469Z,10.30
2018-11-13T13:27:56.048Z,10.40
2018-11-13T13:30:26.274Z,10.50
2018-11-13T13:32:55.855Z,10.50
2018-11-13T13:36:01.105Z,10.50
2018-11-13T13:38:31.732Z,10.60
2018-11-13T13:41:02.236Z,10.70
2018-11-13T13:43:32.523Z,10.80
2018-11-13T13:46:02.219Z,10.80
2018-11-13T13:48:31.743Z,10.80
2018-11-13T13:51:01.413Z,10.90
2018-11-13T13:53:30.874Z,11.00
2018-11-13T13:56:00.555Z,11.00
2018-11-13T13:58:30.118Z,10.90
2018-11-13T14:00:59.868Z,10.90
2018-11-13T14:03:29.307Z,10.70
2018-11-13T14:05:58.874Z,10.70
2018-11-13T14:08:28.328Z,10.70
2018-11-13T14:10:57.774Z,10.70
2018-11-13T14:13:27.483Z,10.70
2018-11-13T14:15:56.983Z,10.80
2018-11-13T14:18:26.647Z,10.80
2018-11-13T14:20:56.295Z,10.80
2018-11-13T14:23:25.765Z,10.80
2018-11-13T14:25:55.251Z,10.90
2018-11-13T14:28:24.881Z,10.90
2018-11-13T14:30:54.532Z,10.90
2018-11-13T14:33:24.031Z,10.90
2018-11-13T14:35:53.489Z,10.90
2018-11-13T14:38:22.995Z,10.90
2018-11-13T14:40:52.565Z,10.90
2018-11-13T14:43:22.071Z,10.90
2018-11-13T14:45:51.511Z,10.80
2018-11-13T14:48:21.025Z,10.80
2018-11-13T14:50:54.061Z,10.80
2018-11-13T14:53:23.812Z,10.90
2018-11-13T14:55:53.432Z,10.90
2018-11-13T14:58:22.939Z,10.90
2018-11-13T15:00:52.512Z,10.90
2018-11-13T15:03:22.139Z,10.90
2018-11-13T15:05:51.634Z,10.90
2018-11-13T15:08:21.056Z,10.80
2018-11-13T15:10:51.660Z,10.90
2018-11-13T15:13:22.366Z,10.90
2018-11-13T15:15:51.959Z,10.90
2018-11-13T15:18:21.622Z,10.80
2018-11-13T15:20:52.337Z,10.80
2018-11-13T15:23:21.862Z,10.70
2018-11-13T15:25:51.355Z,10.70
2018-11-13T15:28:20.819Z,10.70
2018-11-13T15:30:51.003Z,10.60
2018-11-13T15:33:23.058Z,10.60
2018-11-13T15:35:52.595Z,10.60
2018-11-13T15:38:22.025Z,10.60
2018-11-13T15:40:51.581Z,10.70
2018-11-13T15:43:21.316Z,10.60
2018-11-13T15:45:50.972Z,10.60
2018-11-13T15:48:20.731Z,10.60
2018-11-13T15:50:50.595Z,10.60
2018-11-13T15:53:20.220Z,10.60
2018-11-13T15:55:50.721Z,10.70
2018-11-13T15:58:20.445Z,10.70
2018-11-13T16:00:50.805Z,10.70
2018-11-13T16:03:24.653Z,10.70
2018-11-13T16:05:55.279Z,10.60
2018-11-13T16:08:24.733Z,10.60
2018-11-13T16:10:54.737Z,10.50
2018-11-13T16:13:24.372Z,10.60
2018-11-13T16:15:53.901Z,10.50
2018-11-13T16:18:24.904Z,10.50
2018-11-13T16:20:54.450Z,10.50
2018-11-13T16:23:24.159Z,10.50
2018-11-13T16:25:53.799Z,10.50
2018-11-13T16:28:23.557Z,10.50
2018-11-13T16:30:53.280Z,10.50
2018-11-13T16:33:22.930Z,10.60
2018-11-13T16:35:52.403Z,10.60
2018-11-13T16:38:22.262Z,10.50
2018-11-13T16:40:51.864Z,10.60
2018-11-13T16:43:21.471Z,10.50
2018-11-13T16:45:51.156Z,10.40
2018-11-13T16:48:20.842Z,10.40
2018-11-13T16:50:50.886Z,10.40
2018-11-13T16:53:20.483Z,10.40
2018-11-13T16:56:03.868Z,10.30
2018-11-13T16:58:33.611Z,10.30
2018-11-13T17:01:03.397Z,10.20
2018-11-13T17:03:33.329Z,10.20
2018-11-13T17:06:03.144Z,10.30
2018-11-13T17:08:32.819Z,10.30
2018-11-13T17:11:05.195Z,10.40
2018-11-13T17:13:41.411Z,10.50
2018-11-13T17:16:11.118Z,10.50
2018-11-13T17:18:40.958Z,10.50
2018-11-13T17:21:10.644Z,10.50
2018-11-13T17:23:40.288Z,10.60
2018-11-13T17:26:09.739Z,10.60
2018-11-13T17:28:39.432Z,10.60
2018-11-13T17:31:09.484Z,10.60
2018-11-13T17:33:39.222Z,10.60
2018-11-13T17:36:09.000Z,10.60
2018-11-13T17:38:38.993Z,10.60
2018-11-13T17:41:08.707Z,10.60
2018-11-13T17:43:38.442Z,10.60
2018-11-13T17:46:08.224Z,10.50
2018-11-13T17:48:39.499Z,10.50
2018-11-13T17:51:11.044Z,10.50
2018-11-13T17:53:42.597Z,10.60
2018-11-13T17:56:14.107Z,10.60
2018-11-13T17:58:44.889Z,10.60
2018-11-13T18:01:15.287Z,10.60
2018-11-13T18:03:45.001Z,10.60
2018-11-13T18:06:14.941Z,10.60
2018-11-13T18:08:44.889Z,10.60
2018-11-13T18:11:14.638Z,10.70
2018-11-13T18:13:44.524Z,10.70
2018-11-13T18:16:14.288Z,10.70
2018-11-13T18:18:44.830Z,10.70
2018-11-13T18:21:15.111Z,10.70
2018-11-13T18:23:44.849Z,10.60
2018-11-13T18:26:14.864Z,10.60
2018-11-13T18:28:44.850Z,10.60
2018-11-13T18:31:14.696Z,10.60
2018-11-13T18:33:44.644Z,10.60
2018-11-13T18:36:14.539Z,10.60
2018-11-13T18:38:45.238Z,10.50
2018-11-13T18:41:15.047Z,10.50
2018-11-13T18:43:44.853Z,10.40
2018-11-13T18:46:14.472Z,10.40
2018-11-13T18:48:44.253Z,10.40
2018-11-13T18:51:13.815Z,10.40
2018-11-13T18:53:44.456Z,10.40
2018-11-13T18:56:14.154Z,10.40
2018-11-13T18:58:43.860Z,10.60
2018-11-13T19:01:14.537Z,10.60
2018-11-13T19:03:45.502Z,10.70
2018-11-13T19:06:15.282Z,10.70
2018-11-13T19:08:45.057Z,10.60
2018-11-13T19:11:18.393Z,10.60
2018-11-13T19:13:48.889Z,10.70
2018-11-13T19:16:18.678Z,10.70
2018-11-13T19:18:49.064Z,10.70
2018-11-13T19:21:19.628Z,10.60
2018-11-13T19:23:49.296Z,10.60
2018-11-13T19:26:19.147Z,10.50
2018-11-13T19:28:49.145Z,10.40
2018-11-13T19:31:22.427Z,10.40
2018-11-13T19:33:52.845Z,10.60
2018-11-13T19:36:22.817Z,10.60
2018-11-13T19:38:52.414Z,10.70
2018-11-13T19:41:22.238Z,10.60
2018-11-13T19:43:52.090Z,10.60
2018-11-13T19:46:22.899Z,10.60
2018-11-13T19:48:53.103Z,10.60
2018-11-13T19:51:23.200Z,10.70
2018-11-13T19:53:53.106Z,10.60
2018-11-13T19:56:22.779Z,10.50
2018-11-13T19:58:52.351Z,10.50
2018-11-13T20:01:22.559Z,10.40
2018-11-13T20:03:52.283Z,10.40
2018-11-13T20:06:22.392Z,10.50
2018-11-13T20:08:51.939Z,10.40
2018-11-13T20:11:21.790Z,10.40
2018-11-13T20:13:51.742Z,10.40
2018-11-13T20:16:21.428Z,10.30
2018-11-13T20:18:51.562Z,10.30
2018-11-13T20:21:21.230Z,10.20
2018-11-13T20:23:51.638Z,10.30
2018-11-13T20:26:21.622Z,10.30
2018-11-13T20:28:51.810Z,10.30
2018-11-13T20:31:21.733Z,10.40
2018-11-13T20:33:51.473Z,10.30
2018-11-13T20:36:21.141Z,10.30
2018-11-13T20:38:51.459Z,10.30
2018-11-13T20:41:21.534Z,10.30
2018-11-13T20:43:51.983Z,10.30
2018-11-13T20:46:21.513Z,10.20
2018-11-13T20:48:52.303Z,10.20
2018-11-13T20:51:22.217Z,10.30
2018-11-13T20:53:51.907Z,10.30
2018-11-13T20:56:21.494Z,10.30
2018-11-13T20:58:51.680Z,10.30
2018-11-13T21:01:21.531Z,10.30
2018-11-13T21:03:52.139Z,10.20
2018-11-13T21:06:21.793Z,10.20
2018-11-13T21:08:51.578Z,10.30
2018-11-13T21:11:21.453Z,10.30
2018-11-13T21:13:51.647Z,10.30
2018-11-13T21:16:21.666Z,10.30
2018-11-13T21:18:51.837Z,10.40
2018-11-13T21:21:21.655Z,10.40
2018-11-13T21:23:51.933Z,10.30
2018-11-13T21:26:21.561Z,10.30
2018-11-13T21:28:51.692Z,10.30
2018-11-13T21:31:21.474Z,10.30
2018-11-13T21:33:51.796Z,10.30
2018-11-13T21:36:21.588Z,10.30
2018-11-13T21:38:52.123Z,10.40
2018-11-13T21:41:21.857Z,10.30
2018-11-13T21:43:51.734Z,10.30
2018-11-13T21:46:21.426Z,10.30
2018-11-13T21:48:51.733Z,10.30
2018-11-13T21:51:21.555Z,10.30
2018-11-13T21:53:51.778Z,10.30
2018-11-13T21:56:21.398Z,10.30
2018-11-13T21:58:51.853Z,10.30
2018-11-13T22:01:21.469Z,10.40
2018-11-13T22:03:51.765Z,10.40
2018-11-13T22:06:21.429Z,10.40
2018-11-13T22:08:51.836Z,10.40
2018-11-13T22:11:21.682Z,10.30
2018-11-13T22:13:51.724Z,10.30
2018-11-13T22:16:21.409Z,10.30
2018-11-13T22:18:51.968Z,10.20
2018-11-13T22:21:21.820Z,10.20
2018-11-13T22:23:51.816Z,10.20
2018-11-13T22:26:21.627Z,10.20
2018-11-13T22:28:52.320Z,10.20
2018-11-13T22:31:21.476Z,10.30
2018-11-13T22:33:52.159Z,10.20
2018-11-13T22:36:21.771Z,10.30
2018-11-13T22:38:51.796Z,10.40
2018-11-13T22:41:21.449Z,10.40
2018-11-13T22:43:51.756Z,10.50
2018-11-13T22:46:21.435Z,10.50
2018-11-13T22:48:51.823Z,10.40
2018-11-13T22:51:21.488Z,10.30
2018-11-13T22:53:51.803Z,10.20
2018-11-13T22:56:21.340Z,10.10
2018-11-13T22:58:51.870Z,10.10
2018-11-13T23:01:21.458Z,10.10
2018-11-13T23:03:51.913Z,10.20
2018-11-13T23:06:21.623Z,10.20
2018-11-13T23:08:51.691Z,10.20
2018-11-13T23:11:21.312Z,10.30
2018-11-13T23:13:51.852Z,10.30
2018-11-13T23:16:21.351Z,10.20
2018-11-13T23:18:51.676Z,10.30
2018-11-13T23:21:21.123Z,10.30
2018-11-13T23:23:51.566Z,10.30
2018-11-13T23:26:21.274Z,10.30
2018-11-13T23:28:51.719Z,10.30
2018-11-13T23:31:21.352Z,10.40
2018-11-13T23:33:51.941Z,10.40
2018-11-13T23:36:21.493Z,10.50
2018-11-13T23:38:51.771Z,10.50
2018-11-13T23:41:21.387Z,10.50
2018-11-13T23:43:51.818Z,10.60
2018-11-13T23:46:21.440Z,10.60
2018-11-13T23:48:51.767Z,10.60
2018-11-13T23:51:21.441Z,10.60
2018-11-13T23:53:51.904Z,10.60
2018-11-13T23:56:21.594Z,10.70
2018-11-13T23:58:52.030Z,10.70
